createdAt,value
2022-12-09T14:01:07.988Z,4.20
2022-12-09T14:03:40.411Z,4.50
2022-12-09T14:06:23.807Z,4.20
2022-12-09T14:08:57.385Z,4.70
2022-12-09T14:11:54.238Z,4.60
2022-12-09T14:14:59.906Z,4.80
2022-12-09T14:18:02.312Z,4.10
2022-12-09T14:20:41.223Z,3.70
2022-12-09T14:23:17.405Z,3.90
2022-12-09T14:26:04.342Z,3.90
2022-12-09T14:31:59.450Z,3.90
2022-12-09T14:34:39.541Z,3.70
2022-12-09T14:37:22.293Z,4.00
2022-12-09T14:39:59.869Z,3.70
2022-12-09T14:42:38.278Z,3.80
2022-12-09T14:45:21.013Z,3.60
2022-12-09T14:47:52.421Z,3.80
2022-12-09T14:50:28.958Z,3.80
2022-12-09T14:53:00.693Z,3.50
2022-12-09T14:58:07.341Z,3.70
2022-12-09T15:03:45.258Z,3.40
2022-12-09T15:06:19.091Z,3.60
2022-12-09T16:17:46.238Z,3.40
2022-12-09T16:20:35.980Z,4.60
2022-12-09T16:23:07.504Z,3.40
2022-12-09T16:25:44.344Z,3.70
2022-12-09T16:28:29.395Z,3.30
2022-12-09T16:31:05.498Z,4.40
2022-12-09T16:33:40.346Z,4.00
2022-12-09T16:36:17.983Z,3.70
2022-12-09T16:39:22.583Z,3.90
2022-12-09T16:49:48.235Z,3.50
2022-12-09T16:52:22.360Z,3.90
2022-12-09T16:54:52.153Z,4.70
2022-12-09T16:57:30.691Z,3.80
2022-12-09T16:59:59.739Z,3.80
2022-12-09T17:05:28.897Z,3.90
2022-12-09T17:07:58.232Z,4.30
2022-12-09T17:13:01.690Z,3.90
2022-12-09T17:15:33.423Z,3.70
2022-12-09T17:23:11.139Z,4.70
2022-12-09T17:25:40.381Z,4.30
2022-12-09T17:28:11.180Z,3.50
2022-12-09T17:30:42.199Z,4.00
2022-12-09T17:33:17.745Z,3.80
2022-12-09T17:35:49.603Z,3.60
2022-12-09T17:38:19.280Z,3.90
2022-12-09T17:41:08.286Z,3.20
2022-12-09T17:43:38.360Z,3.40
2022-12-09T17:46:15.891Z,3.10
2022-12-09T17:48:45.832Z,3.10
2022-12-09T17:51:20.531Z,3.00
2022-12-09T17:53:50.377Z,3.00
2022-12-09T17:56:23.207Z,2.80
2022-12-09T17:59:01.350Z,3.10
2022-12-09T18:01:34.707Z,3.00
2022-12-09T18:04:09.012Z,3.00
2022-12-09T18:06:44.364Z,3.10
2022-12-09T18:09:15.511Z,3.30
2022-12-09T18:11:45.968Z,3.40
2022-12-09T18:19:26.167Z,3.30
2022-12-09T18:21:58.585Z,3.20
2022-12-09T18:24:31.124Z,3.50
2022-12-09T18:27:00.827Z,4.10
2022-12-09T18:29:32.267Z,3.60
2022-12-09T18:32:01.621Z,2.80
2022-12-09T18:34:33.376Z,2.90
2022-12-09T18:37:05.492Z,3.50
2022-12-09T18:39:35.688Z,3.30
2022-12-09T18:42:15.295Z,2.90
2022-12-09T18:44:50.921Z,2.70
2022-12-09T18:47:20.881Z,3.20
2022-12-09T18:49:51.735Z,2.50
2022-12-09T18:52:22.824Z,2.40
2022-12-09T18:54:54.782Z,2.20
2022-12-09T18:57:30.383Z,2.40
2022-12-09T19:02:32.509Z,2.30
2022-12-09T19:10:11.057Z,2.00
2022-12-09T19:20:46.545Z,1.90
2022-12-09T19:34:11.028Z,2.00
2022-12-09T19:49:52.122Z,2.00
2022-12-09T20:02:55.481Z,1.90
2022-12-09T20:05:42.327Z,2.00
2022-12-09T20:08:18.486Z,1.90
2022-12-09T20:13:51.352Z,2.00
2022-12-09T20:16:28.820Z,2.10
2022-12-09T20:19:02.806Z,2.00
2022-12-09T20:21:34.043Z,1.60
2022-12-09T20:24:08.907Z,1.90
2022-12-09T20:26:46.156Z,2.00
2022-12-09T20:29:17.730Z,2.00
2022-12-09T20:31:49.840Z,2.90
2022-12-09T20:34:27.001Z,2.10
2022-12-09T20:37:00.439Z,2.00
2022-12-09T20:39:30.724Z,2.10
2022-12-09T20:42:07.889Z,3.30
2022-12-09T20:44:37.261Z,2.20
2022-12-09T20:47:12.838Z,1.60
2022-12-09T20:49:44.762Z,2.10
2022-12-09T20:52:19.505Z,2.00
2022-12-09T20:54:51.032Z,1.60
2022-12-09T20:57:42.451Z,1.40
2022-12-09T21:00:26.482Z,2.00
2022-12-09T21:03:19.037Z,2.00
2022-12-09T21:05:48.689Z,2.00
2022-12-09T21:08:35.247Z,2.00
2022-12-09T21:11:06.372Z,2.00
2022-12-09T21:14:01.667Z,2.00
2022-12-09T21:16:44.892Z,2.30
2022-12-09T21:19:17.452Z,2.00
2022-12-09T21:21:58.027Z,2.00
2022-12-09T21:24:27.370Z,1.90
2022-12-09T21:27:13.310Z,2.20
2022-12-09T21:29:45.953Z,2.20
2022-12-09T21:32:23.292Z,2.10
2022-12-09T21:34:59.862Z,2.40
2022-12-09T21:37:30.265Z,2.30
2022-12-09T23:27:18.232Z,3.40
2022-12-09T23:35:47.349Z,3.00
